Time;durP1;ratioP1;P1;durP2;ratioP2;P2;SDS_P1;SDS_P2;PMS_P1;PMS_P2;Temp;Humidity;BMP_temperature;BMP_pressure;BME280_temperature;BME280_humidity;BME280_pressure;Samples;Min_cycle;Max_cycle;Signal;HPM_P1;HPM_P2
2023/08/23 00:01:05;;;;;;;27.75;24.83;;;13.60;99.90;;;;;;6137144;23;20020;-79
2023/08/23 00:03:31;;;;;;;18.50;17.00;;;13.60;99.90;;;;;;6138683;23;20016;-80
2023/08/23 00:06:04;;;;;;;18.38;16.85;;;13.60;99.90;;;;;;6137224;23;20024;-81
2023/08/23 00:08:34;;;;;;;17.65;16.23;;;13.50;99.90;;;;;;6161901;23;20013;-80
2023/08/23 00:11:09;;;;;;;24.85;22.45;;;13.40;99.90;;;;;;6136923;23;20016;-80
2023/08/23 00:13:36;;;;;;;19.92;18.08;;;13.50;99.90;;;;;;6135442;23;20307;-81
2023/08/23 00:16:05;;;;;;;66.22;39.95;;;13.40;99.90;;;;;;6161111;23;20013;-80
2023/08/23 00:18:35;;;;;;;19.63;17.98;;;13.50;99.90;;;;;;6135490;23;20028;-80
2023/08/23 00:21:02;;;;;;;27.20;23.90;;;13.50;99.90;;;;;;6135943;23;20035;-80
2023/08/23 00:23:28;;;;;;;24.30;21.90;;;13.40;99.90;;;;;;6135904;23;20013;-80
2023/08/23 00:25:55;;;;;;;17.95;16.35;;;13.30;99.90;;;;;;6160704;23;20457;-81
2023/08/23 00:28:22;;;;;;;22.00;19.85;;;13.30;99.90;;;;;;6134442;23;20019;-80
2023/08/23 00:30:56;;;;;;;16.85;15.48;;;13.30;99.90;;;;;;6158931;23;20020;-81
2023/08/23 00:33:23;;;;;;;40.22;29.15;;;13.30;99.90;;;;;;6133416;23;20080;-80
2023/08/23 00:35:52;;;;;;;19.42;17.73;;;13.30;99.90;;;;;;6159678;23;20093;-80
2023/08/23 00:38:18;;;;;;;26.92;24.23;;;13.30;99.90;;;;;;6159539;23;20449;-80
2023/08/23 00:40:45;;;;;;;25.00;22.75;;;13.30;99.90;;;;;;6160065;23;20283;-80
2023/08/23 00:43:11;;;;;;;20.50;18.77;;;13.20;99.90;;;;;;6135410;23;20017;-80
2023/08/23 00:45:41;;;;;;;39.17;33.33;;;13.20;99.90;;;;;;6135378;23;20044;-80
2023/08/23 00:48:09;;;;;;;36.78;29.42;;;13.20;99.90;;;;;;6159217;23;20151;-80
2023/08/23 00:50:51;;;;;;;20.25;18.55;;;13.30;99.90;;;;;;6160215;23;20021;-80
2023/08/23 00:53:20;;;;;;;23.15;20.70;;;13.20;99.90;;;;;;6134933;23;20036;-80
2023/08/23 00:55:46;;;;;;;21.33;19.42;;;13.20;99.90;;;;;;6159268;23;20017;-80
2023/08/23 00:58:13;;;;;;;19.13;17.52;;;13.20;99.90;;;;;;6159300;23;20009;-80
2023/08/23 01:00:42;;;;;;;18.33;16.83;;;13.20;99.90;;;;;;6135426;23;20013;-80
2023/08/23 01:03:08;;;;;;;16.27;15.02;;;13.20;99.90;;;;;;6135431;23;20048;-80
2023/08/23 01:06:00;;;;;;;17.38;15.98;;;13.10;99.90;;;;;;6135440;23;20081;-80
2023/08/23 01:08:48;;;;;;;16.05;14.73;;;13.10;99.90;;;;;;6159713;23;20450;-80
2023/08/23 01:11:30;;;;;;;19.02;17.50;;;13.10;99.90;;;;;;6159142;23;20515;-80
2023/08/23 01:14:07;;;;;;;20.25;18.52;;;13.00;99.90;;;;;;6134573;23;20063;-80
2023/08/23 01:16:36;;;;;;;18.85;17.15;;;13.00;99.90;;;;;;6112282;23;20016;-82
2023/08/23 01:19:24;;;;;;;19.92;18.23;;;13.00;99.90;;;;;;6135772;23;20009;-83
2023/08/23 01:21:53;;;;;;;20.08;18.25;;;13.00;99.90;;;;;;6136304;23;20024;-83
2023/08/23 01:24:26;;;;;;;20.13;18.40;;;12.90;99.90;;;;;;6160711;23;20017;-83
2023/08/23 01:26:55;;;;;;;37.65;27.80;;;13.00;99.90;;;;;;6161244;23;20055;-82
2023/08/23 01:29:30;;;;;;;25.42;22.80;;;13.00;99.90;;;;;;6160214;23;20017;-82
2023/08/23 01:32:24;;;;;;;21.08;19.25;;;12.90;99.90;;;;;;6136177;23;20512;-83
2023/08/23 01:35:16;;;;;;;19.08;17.52;;;12.90;99.90;;;;;;6159950;23;20027;-83
2023/08/23 01:38:00;;;;;;;21.17;19.38;;;12.80;99.90;;;;;;6161632;23;20350;-83
2023/08/23 01:40:38;;;;;;;21.20;19.27;;;12.90;99.90;;;;;;6157508;23;20021;-83
2023/08/23 01:43:09;;;;;;;29.00;25.90;;;12.80;99.90;;;;;;6161128;23;20060;-83
2023/08/23 01:45:35;;;;;;;31.02;26.92;;;12.80;99.90;;;;;;6159068;23;20017;-83
2023/08/23 01:48:06;;;;;;;25.83;23.48;;;12.90;99.90;;;;;;6134148;23;20028;-83
2023/08/23 01:50:35;;;;;;;25.70;23.40;;;12.90;99.90;;;;;;6135888;23;20362;-82
2023/08/23 01:53:06;;;;;;;24.00;21.83;;;13.00;99.90;;;;;;6135916;23;20017;-82
2023/08/23 01:55:35;;;;;;;22.70;20.80;;;12.90;99.90;;;;;;6135709;23;20125;-83
2023/08/23 01:58:01;;;;;;;28.75;25.95;;;12.90;99.90;;;;;;6136009;23;20527;-80
2023/08/23 02:00:27;;;;;;;43.47;32.53;;;12.90;99.90;;;;;;6135726;23;20013;-81
2023/08/23 02:03:01;;;;;;;27.25;24.88;;;13.00;99.90;;;;;;6111456;23;20044;-81
2023/08/23 02:05:33;;;;;;;30.17;27.58;;;13.00;99.90;;;;;;6160682;23;20018;-81
2023/08/23 02:08:01;;;;;;;28.52;26.17;;;13.00;99.90;;;;;;6185593;23;20017;-80
2023/08/23 02:10:30;;;;;;;27.55;25.15;;;13.00;99.90;;;;;;6160354;23;20132;-81
2023/08/23 02:13:14;;;;;;;32.65;29.55;;;13.00;99.90;;;;;;6165772;23;20013;-81
2023/08/23 02:15:40;;;;;;;28.02;25.55;;;13.00;99.90;;;;;;6166592;23;20434;-80
2023/08/23 02:18:09;;;;;;;26.70;24.48;;;13.00;99.90;;;;;;6187876;23;20048;-79
2023/08/23 02:20:45;;;;;;;39.03;31.45;;;13.00;99.90;;;;;;6138832;23;20053;-81
2023/08/23 02:23:19;;;;;;;32.17;28.85;;;13.10;99.90;;;;;;6162951;23;20017;-80
2023/08/23 02:25:53;;;;;;;57.60;40.90;;;13.10;99.90;;;;;;6162307;23;20020;-80
2023/08/23 02:28:30;;;;;;;37.33;33.28;;;13.00;99.90;;;;;;6162066;23;20068;-81
2023/08/23 02:31:04;;;;;;;161.95;61.33;;;13.10;99.90;;;;;;6160666;23;20479;-79
2023/08/23 02:33:39;;;;;;;86.25;44.30;;;13.20;99.90;;;;;;6133219;23;20044;-79
2023/08/23 02:36:10;;;;;;;44.38;33.55;;;13.10;99.90;;;;;;6132723;23;20052;-80
2023/08/23 02:38:50;;;;;;;49.08;38.50;;;13.10;99.90;;;;;;6156745;23;20021;-80
2023/08/23 02:41:19;;;;;;;51.25;39.00;;;13.20;99.90;;;;;;6133897;23;20009;-79
2023/08/23 02:43:59;;;;;;;38.00;34.20;;;13.20;99.90;;;;;;6134694;23;20066;-79
2023/08/23 02:46:40;;;;;;;75.80;46.38;;;13.20;99.90;;;;;;6158604;23;20025;-79
2023/08/23 02:49:12;;;;;;;34.47;30.98;;;13.20;99.90;;;;;;6135319;23;20152;-80
2023/08/23 02:51:41;;;;;;;96.00;54.20;;;13.20;99.90;;;;;;6158293;23;20013;-79
2023/08/23 02:54:17;;;;;;;89.22;50.38;;;13.20;99.90;;;;;;6134541;23;20017;-80
2023/08/23 02:56:51;;;;;;;54.05;40.95;;;13.10;99.90;;;;;;6159098;23;20013;-79
2023/08/23 02:59:30;;;;;;;45.83;41.20;;;13.10;99.90;;;;;;6137870;23;20013;-79
2023/08/23 03:02:16;;;;;;;51.03;43.33;;;13.10;99.90;;;;;;6159763;23;20016;-79
2023/08/23 03:04:45;;;;;;;37.45;34.17;;;13.10;99.90;;;;;;6159826;23;20079;-79
2023/08/23 03:07:18;;;;;;;56.10;44.85;;;13.10;99.90;;;;;;6132710;23;20021;-79
2023/08/23 03:09:47;;;;;;;38.03;34.33;;;13.10;99.90;;;;;;6131864;23;20075;-79
2023/08/23 03:12:28;;;;;;;47.80;42.65;;;13.10;99.90;;;;;;6158191;23;20021;-79
2023/08/23 03:15:07;;;;;;;45.00;37.25;;;13.10;99.90;;;;;;6134370;23;20048;-80
2023/08/23 03:17:44;;;;;;;37.75;34.25;;;13.10;99.90;;;;;;6157949;23;20020;-79
2023/08/23 03:20:49;;;;;;;45.65;38.15;;;13.10;99.90;;;;;;6161052;23;20049;-79
2023/08/23 03:23:20;;;;;;;38.55;34.45;;;13.00;99.90;;;;;;6157419;23;20017;-79
2023/08/23 03:26:02;;;;;;;;;;;;;;;;;;;;;
2023/08/23 03:28:31;;;;;;;41.08;37.38;;;13.00;99.90;;;;;;6183077;23;20075;-79
2023/08/23 03:31:18;;;;;;;41.15;37.63;;;13.00;99.90;;;;;;6134092;23;20016;-79
2023/08/23 03:33:47;;;;;;;32.05;29.35;;;13.00;99.90;;;;;;6158185;23;20368;-79
2023/08/23 03:36:18;;;;;;;77.50;49.97;;;13.10;99.90;;;;;;6160647;23;20045;-79
2023/08/23 03:38:54;;;;;;;29.08;26.65;;;13.00;99.90;;;;;;6132483;23;20013;-80
2023/08/23 03:41:29;;;;;;;28.83;26.52;;;13.00;99.90;;;;;;6135021;23;20032;-79
2023/08/23 03:44:14;;;;;;;24.45;22.60;;;12.90;99.90;;;;;;6135583;23;20036;-79
2023/08/23 03:46:50;;;;;;;27.30;25.02;;;12.90;99.90;;;;;;6160744;23;20017;-79
2023/08/23 03:49:17;;;;;;;28.80;26.38;;;12.80;99.90;;;;;;6159510;23;20024;-79
2023/08/23 03:51:48;;;;;;;28.65;26.23;;;12.90;99.90;;;;;;6133343;23;20017;-79
2023/08/23 03:54:40;;;;;;;36.30;32.65;;;12.80;99.90;;;;;;6122713;23;20079;-80
2023/08/23 03:57:10;;;;;;;56.75;43.95;;;12.80;99.90;;;;;;6133766;23;20453;-79
2023/08/23 03:59:57;;;;;;;26.00;23.83;;;12.70;99.90;;;;;;6158884;23;20060;-79
2023/08/23 04:02:36;;;;;;;28.15;25.85;;;12.70;99.90;;;;;;6154830;23;20253;-79
2023/08/23 04:05:11;;;;;;;27.88;25.48;;;12.60;99.90;;;;;;6158524;23;20358;-79
2023/08/23 04:07:49;;;;;;;31.08;28.17;;;12.60;99.90;;;;;;6158099;23;20017;-79
2023/08/23 04:10:50;;;;;;;35.40;31.65;;;12.70;99.90;;;;;;6157714;23;20021;-79
2023/08/23 04:13:40;;;;;;;33.30;30.23;;;12.70;99.90;;;;;;6133364;23;20013;-79
2023/08/23 04:16:25;;;;;;;35.28;32.00;;;12.70;99.90;;;;;;6158475;23;20115;-79
2023/08/23 04:18:58;;;;;;;52.95;42.75;;;12.70;99.90;;;;;;6157765;23;20013;-79
2023/08/23 04:21:54;;;;;;;33.78;30.50;;;12.70;99.90;;;;;;6182145;23;20117;-79
2023/08/23 04:24:38;;;;;;;55.83;38.78;;;12.70;99.90;;;;;;6158340;23;20525;-79
2023/08/23 04:27:07;;;;;;;45.15;37.22;;;12.70;99.90;;;;;;6157191;23;20017;-79
2023/08/23 04:29:47;;;;;;;60.13;39.17;;;12.80;99.90;;;;;;6133553;23;20023;-79
2023/08/23 04:32:26;;;;;;;27.60;25.35;;;12.80;99.90;;;;;;6156299;23;20021;-79
2023/08/23 04:34:58;;;;;;;60.00;45.92;;;12.80;99.90;;;;;;6158299;23;20013;-79
2023/08/23 04:37:27;;;;;;;50.83;38.78;;;12.90;99.90;;;;;;6158522;23;20348;-79
2023/08/23 04:39:56;;;;;;;45.85;41.00;;;12.90;99.90;;;;;;6133664;23;20160;-79
2023/08/23 04:42:40;;;;;;;69.15;46.13;;;13.00;99.90;;;;;;6134020;23;20055;-79
2023/08/23 04:45:15;;;;;;;38.50;34.85;;;13.10;99.90;;;;;;6130966;23;20063;-79
2023/08/23 04:47:51;;;;;;;33.17;30.08;;;13.10;99.90;;;;;;6158104;23;20009;-79
2023/08/23 04:50:34;;;;;;;35.40;32.25;;;13.20;99.90;;;;;;6134213;23;20044;-79
2023/08/23 04:53:09;;;;;;;35.55;29.63;;;13.20;99.90;;;;;;6156652;23;20429;-80
2023/08/23 04:56:10;;;;;;;35.78;32.22;;;13.20;99.90;;;;;;6160213;23;20096;-79
2023/08/23 04:58:46;;;;;;;37.88;33.10;;;13.30;99.90;;;;;;6158429;23;20393;-79
2023/08/23 05:01:43;;;;;;;29.92;27.10;;;13.30;99.90;;;;;;6131586;23;20017;-79
2023/08/23 05:04:21;;;;;;;40.75;34.55;;;13.30;99.90;;;;;;6157945;23;20047;-79
2023/08/23 05:07:02;;;;;;;38.17;34.35;;;13.30;99.90;;;;;;6133839;23;20438;-80
2023/08/23 05:10:22;;;;;;;31.60;28.73;;;13.40;99.90;;;;;;6092810;23;20021;-79
2023/08/23 05:13:06;;;;;;;;;;;13.40;99.90;;;;;;6156600;23;20292;-79
2023/08/23 05:15:51;;;;;;;33.92;30.95;;;13.40;99.90;;;;;;6133173;23;19967;-79
2023/08/23 05:18:29;;;;;;;;;;;13.50;99.90;;;;;;6158105;23;20365;-79
2023/08/23 05:21:09;;;;;;;46.58;35.72;;;13.50;99.90;;;;;;6130284;23;19966;-79
2023/08/23 05:24:12;;;;;;;38.42;34.72;;;13.50;99.90;;;;;;6162729;23;20100;-79
2023/08/23 05:27:03;;;;;;;35.67;32.30;;;13.50;99.90;;;;;;6159063;23;20024;-79
2023/08/23 05:29:50;;;;;;;33.88;30.83;;;13.60;99.90;;;;;;6129461;23;20021;-79
2023/08/23 05:32:33;;;;;;;38.65;33.95;;;13.70;99.90;;;;;;6157428;23;20079;-79
2023/08/23 05:35:11;;;;;;;40.33;33.33;;;13.70;99.90;;;;;;6132039;23;20446;-79
2023/08/23 05:37:55;;;;;;;33.20;29.70;;;13.60;99.90;;;;;;6159153;23;20048;-79
2023/08/23 05:40:44;;;;;;;40.22;35.92;;;13.60;99.90;;;;;;6157412;23;20013;-80
2023/08/23 05:43:16;;;;;;;64.10;43.13;;;13.60;99.90;;;;;;6133197;23;20013;-79
2023/08/23 05:45:56;;;;;;;27.52;25.13;;;13.60;99.90;;;;;;6157005;23;20017;-79
2023/08/23 05:49:00;;;;;;;;;;;;;;;;;;;;;
2023/08/23 05:51:54;;;;;;;27.02;24.75;;;13.60;99.90;;;;;;6156203;23;20013;-79
2023/08/23 05:54:43;;;;;;;39.38;35.17;;;13.60;99.90;;;;;;6157649;23;20062;-79
2023/08/23 05:57:32;;;;;;;37.10;32.00;;;13.70;99.90;;;;;;6159980;23;20020;-79
2023/08/23 06:00:21;;;;;;;36.78;33.25;;;13.70;99.90;;;;;;6094514;23;20049;-79
2023/08/23 06:03:00;;;;;;;34.85;31.65;;;13.80;99.90;;;;;;6157032;23;20056;-79
2023/08/23 06:05:46;;;;;;;42.78;38.70;;;13.90;99.90;;;;;;6133274;23;20354;-78
2023/08/23 06:08:37;;;;;;;46.42;41.60;;;14.00;99.90;;;;;;6134140;23;20045;-79
2023/08/23 06:14:45;;;;;;;48.78;43.85;;;14.40;99.90;;;;;;6181514;23;20469;-80
2023/08/23 06:18:07;;;;;;;45.55;41.35;;;14.60;99.90;;;;;;6159540;23;20017;-79
2023/08/23 06:20:48;;;;;;;47.13;42.63;;;14.70;99.90;;;;;;6074722;23;20013;-79
2023/08/23 06:23:43;;;;;;;45.03;40.75;;;14.90;99.90;;;;;;6134927;23;20062;-79
2023/08/23 06:26:49;;;;;;;37.40;34.00;;;15.10;99.90;;;;;;6163648;23;20024;-79
2023/08/23 06:29:32;;;;;;;33.95;30.95;;;15.30;99.90;;;;;;6090267;23;20020;-79
2023/08/23 06:32:16;;;;;;;41.08;36.95;;;15.30;99.90;;;;;;6144068;23;20028;-79
2023/08/23 06:34:45;;;;;;;35.25;31.98;;;15.40;99.90;;;;;;6110411;23;20461;-79
2023/08/23 06:37:49;;;;;;;32.60;29.70;;;15.30;99.90;;;;;;6135733;23;20040;-79
2023/08/23 06:40:44;;;;;;;39.17;34.80;;;15.40;99.90;;;;;;6153994;23;20017;-79
2023/08/23 06:43:35;;;;;;;33.78;30.67;;;15.40;99.90;;;;;;6133824;23;20044;-79
2023/08/23 06:46:14;;;;;;;38.00;34.40;;;15.50;99.90;;;;;;6159296;23;20013;-79
2023/08/23 06:48:52;;;;;;;40.03;36.28;;;15.60;99.90;;;;;;6133867;23;20044;-80
2023/08/23 06:51:22;;;;;;;34.30;31.50;;;15.70;99.90;;;;;;6111643;23;20017;-79
2023/08/23 06:53:55;;;;;;;31.98;29.35;;;15.70;99.90;;;;;;6157897;23;20009;-80
2023/08/23 06:56:21;;;;;;;32.15;29.42;;;15.80;99.90;;;;;;6132925;23;20013;-76
2023/08/23 06:58:56;;;;;;;32.45;29.70;;;15.90;99.90;;;;;;6131434;23;20009;-80
2023/08/23 07:01:22;;;;;;;42.42;38.60;;;16.00;99.90;;;;;;6157739;23;20203;-77
2023/08/23 07:03:48;;;;;;;40.20;36.67;;;16.00;99.90;;;;;;6134385;23;20346;-79
2023/08/23 07:06:19;;;;;;;48.78;44.10;;;16.10;99.90;;;;;;6157819;23;20028;-78
2023/08/23 07:08:48;;;;;;;36.05;32.95;;;16.20;99.90;;;;;;6158530;23;20055;-78
2023/08/23 07:11:27;;;;;;;51.65;45.50;;;16.20;99.90;;;;;;6133912;23;20017;-79
2023/08/23 07:13:59;;;;;;;36.10;33.15;;;16.30;99.90;;;;;;6157727;23;20009;-78
2023/08/23 07:16:28;;;;;;;30.08;27.38;;;16.40;99.90;;;;;;6133890;23;20024;-78
2023/08/23 07:19:13;;;;;;;47.38;42.17;;;16.60;99.90;;;;;;6159978;23;20009;-78
2023/08/23 07:21:48;;;;;;;25.77;23.60;;;16.70;99.90;;;;;;6160271;23;20087;-79
2023/08/23 07:24:24;;;;;;;39.03;35.72;;;16.90;99.90;;;;;;6133109;23;20020;-78
2023/08/23 07:27:21;;;;;;;32.88;30.08;;;17.00;99.90;;;;;;6162202;23;20162;-78
2023/08/23 07:30:03;;;;;;;25.33;23.05;;;17.30;99.90;;;;;;6132181;23;20088;-78
2023/08/23 07:32:59;;;;;;;27.75;25.55;;;17.40;99.90;;;;;;6158353;23;20024;-78
2023/08/23 07:35:34;;;;;;;26.33;24.13;;;17.40;99.90;;;;;;6155725;23;20055;-78
2023/08/23 07:38:14;;;;;;;23.33;21.42;;;17.50;99.90;;;;;;6176311;23;20017;-78
2023/08/23 07:40:51;;;;;;;27.33;24.98;;;17.50;99.90;;;;;;6089483;23;20028;-78
2023/08/23 07:43:31;;;;;;;22.38;20.38;;;17.50;99.90;;;;;;6133569;23;20017;-80
2023/08/23 07:45:59;;;;;;;31.30;28.60;;;17.60;99.90;;;;;;6157982;23;20019;-79
2023/08/23 07:48:42;;;;;;;28.20;25.73;;;17.60;99.90;;;;;;6157353;23;20056;-79
2023/08/23 07:51:21;;;;;;;24.52;22.33;;;17.70;99.90;;;;;;6158319;23;20445;-79
2023/08/23 07:53:48;;;;;;;20.75;18.95;;;17.80;99.90;;;;;;6158367;23;20010;-79
2023/08/23 07:56:14;;;;;;;19.63;18.02;;;17.70;99.90;;;;;;6109203;23;20017;-80
2023/08/23 07:58:54;;;;;;;24.70;22.48;;;17.90;99.90;;;;;;6131654;23;20319;-79
2023/08/23 08:01:52;;;;;;;26.05;23.88;;;17.90;99.90;;;;;;6158957;23;20505;-79
2023/08/23 08:04:36;;;;;;;19.05;17.35;;;18.00;99.90;;;;;;6130879;23;20116;-79
2023/08/23 08:07:58;;;;;;;20.60;18.73;;;18.10;99.90;;;;;;6158390;23;20024;-79
2023/08/23 08:10:51;;;;;;;;;;;18.20;99.90;;;;;;6010804;23;20564;-80
2023/08/23 08:14:13;;;;;;;23.85;21.75;;;18.30;99.90;;;;;;6183920;23;19917;-79
2023/08/23 08:16:44;;;;;;;20.58;18.58;;;18.40;99.90;;;;;;6124024;23;20025;-75
2023/08/23 08:19:10;;;;;;;21.30;19.50;;;18.50;99.90;;;;;;6157188;23;20016;-75
2023/08/23 08:21:39;;;;;;;21.52;19.73;;;18.60;99.90;;;;;;6158183;23;20084;-76
2023/08/23 08:24:24;;;;;;;20.17;18.48;;;18.60;99.90;;;;;;6157733;23;20017;-76
2023/08/23 08:26:50;;;;;;;22.73;20.67;;;18.80;99.90;;;;;;6132110;23;20021;-76
2023/08/23 08:29:16;;;;;;;17.75;16.25;;;18.90;99.90;;;;;;6157100;23;20048;-77
2023/08/23 08:31:42;;;;;;;22.38;20.65;;;19.20;99.90;;;;;;6184631;23;20128;-85
2023/08/23 08:34:08;;;;;;;14.98;13.68;;;19.80;99.90;;;;;;6134344;23;20013;-85
2023/08/23 08:36:33;;;;;;;14.32;13.05;;;20.70;99.90;;;;;;6134094;23;20013;-85
2023/08/23 08:38:59;;;;;;;14.90;13.70;;;21.60;99.90;;;;;;6133355;23;20017;-85
2023/08/23 08:41:25;;;;;;;16.15;14.65;;;22.40;99.90;;;;;;6133516;23;20088;-86
2023/08/23 08:43:52;;;;;;;14.23;12.93;;;23.30;99.90;;;;;;6182581;23;20091;-87
2023/08/23 08:46:18;;;;;;;12.98;11.68;;;23.90;99.90;;;;;;6133737;23;20416;-86
2023/08/23 08:48:45;;;;;;;12.80;11.50;;;24.50;99.90;;;;;;6158742;23;20013;-85
2023/08/23 08:51:19;;;;;;;11.57;10.57;;;25.00;99.90;;;;;;6157609;23;20084;-84
2023/08/23 08:53:50;;;;;;;10.57;9.63;;;25.60;99.90;;;;;;6134605;23;20017;-84
2023/08/23 08:56:20;;;;;;;11.10;9.98;;;26.10;99.90;;;;;;6160237;23;20013;-84
2023/08/23 08:58:48;;;;;;;10.85;9.93;;;26.40;99.90;;;;;;6136369;23;20009;-84
2023/08/23 09:01:14;;;;;;;11.40;10.40;;;26.60;99.90;;;;;;6162568;23;20457;-83
2023/08/23 09:03:40;;;;;;;10.57;9.52;;;26.90;99.90;;;;;;6137022;23;20013;-84
2023/08/23 09:06:07;;;;;;;12.18;9.98;;;27.10;99.90;;;;;;6157432;23;20016;-84
2023/08/23 09:08:33;;;;;;;11.15;9.88;;;27.40;99.90;;;;;;6133604;23;20326;-84
2023/08/23 09:10:59;;;;;;;11.00;9.90;;;27.70;99.90;;;;;;6133130;23;20017;-83
2023/08/23 09:13:25;;;;;;;8.60;7.75;;;28.10;99.90;;;;;;6132540;23;20052;-84
2023/08/23 09:15:51;;;;;;;9.45;8.55;;;28.20;99.90;;;;;;6133750;23;20012;-84
2023/08/23 09:18:20;;;;;;;9.15;7.85;;;28.40;99.90;;;;;;6158101;23;20116;-84
2023/08/23 09:20:46;;;;;;;9.30;7.13;;;28.60;99.90;;;;;;6160155;23;20092;-85
2023/08/23 09:23:12;;;;;;;8.43;7.30;;;28.70;99.90;;;;;;6134450;23;20107;-84
2023/08/23 09:25:37;;;;;;;8.38;7.57;;;28.60;99.90;;;;;;6182985;23;20071;-83
2023/08/23 09:28:03;;;;;;;8.05;7.38;;;28.50;99.90;;;;;;6133630;23;20087;-83
2023/08/23 09:30:29;;;;;;;8.48;7.50;;;28.40;99.90;;;;;;6158517;23;20051;-84
2023/08/23 09:32:57;;;;;;;8.32;7.45;;;28.40;99.90;;;;;;6134234;23;20071;-83
2023/08/23 09:35:23;;;;;;;8.43;7.57;;;28.50;99.90;;;;;;6158531;23;20017;-82
2023/08/23 09:37:49;;;;;;;7.50;6.80;;;28.40;98.50;;;;;;6159139;23;20009;-84
2023/08/23 09:40:22;;;;;;;6.60;5.88;;;28.50;99.90;;;;;;6157801;23;20020;-84
2023/08/23 09:42:50;;;;;;;8.25;6.80;;;28.70;99.90;;;;;;6159660;23;20016;-83
2023/08/23 09:45:21;;;;;;;8.27;7.40;;;28.90;99.90;;;;;;6158241;23;20480;-81
2023/08/23 09:47:53;;;;;;;6.68;6.00;;;29.10;94.50;;;;;;6158363;23;20021;-83
2023/08/23 09:50:23;;;;;;;7.43;6.60;;;29.00;99.10;;;;;;6160033;23;20450;-83
2023/08/23 09:52:59;;;;;;;7.20;6.38;;;29.10;99.90;;;;;;6161273;23;20323;-85
2023/08/23 09:55:25;;;;;;;8.82;6.53;;;29.30;99.90;;;;;;6161080;23;20048;-83
2023/08/23 09:57:55;;;;;;;7.13;6.43;;;29.40;99.90;;;;;;6135817;23;20013;-83
2023/08/23 10:00:22;;;;;;;7.18;5.90;;;29.60;99.90;;;;;;6136165;23;20009;-83
2023/08/23 10:02:47;;;;;;;5.90;5.18;;;29.80;96.00;;;;;;6161955;23;20009;-82
2023/08/23 10:05:13;;;;;;;5.43;4.18;;;29.90;93.50;;;;;;6136884;23;20063;-82
2023/08/23 10:07:41;;;;;;;6.25;5.65;;;29.70;90.90;;;;;;6161604;23;20015;-83
2023/08/23 10:10:08;;;;;;;6.22;5.63;;;29.60;96.90;;;;;;6162526;23;20457;-83
2023/08/23 10:12:36;;;;;;;7.43;5.93;;;29.60;99.70;;;;;;6136758;23;20458;-83
2023/08/23 10:15:03;;;;;;;6.95;6.22;;;29.70;98.90;;;;;;6163137;23;20013;-82
2023/08/23 10:17:30;;;;;;;7.00;6.30;;;29.60;74.40;;;;;;6161981;23;20009;-83
2023/08/23 10:19:56;;;;;;;6.63;5.93;;;29.60;83.30;;;;;;6161796;23;20009;-83
2023/08/23 10:22:23;;;;;;;8.43;6.90;;;29.50;95.30;;;;;;6188634;23;20020;-82
2023/08/23 10:24:50;;;;;;;7.93;7.00;;;29.60;93.80;;;;;;6163551;23;20014;-82
2023/08/23 10:27:17;;;;;;;7.25;6.15;;;29.60;82.30;;;;;;6161601;23;20024;-82
2023/08/23 10:29:42;;;;;;;8.25;7.38;;;29.70;82.70;;;;;;6186350;23;20071;-83
2023/08/23 10:32:09;;;;;;;8.85;7.60;;;29.70;91.30;;;;;;6135112;23;20013;-85
2023/08/23 10:34:37;;;;;;;8.68;7.40;;;29.70;93.60;;;;;;6161900;23;20013;-82
2023/08/23 10:37:17;;;;;;;8.65;7.32;;;29.60;76.10;;;;;;6162855;23;20059;-82
2023/08/23 10:39:52;;;;;;;8.20;7.22;;;29.70;74.70;;;;;;6137685;23;20013;-81
2023/08/23 10:42:18;;;;;;;7.82;6.88;;;29.50;77.10;;;;;;6161248;23;20009;-82
2023/08/23 10:44:56;;;;;;;8.10;7.25;;;29.40;93.30;;;;;;6160015;23;20020;-82
2023/08/23 10:47:23;;;;;;;9.15;8.10;;;29.50;94.70;;;;;;6160515;23;20533;-82
2023/08/23 10:49:50;;;;;;;7.97;7.18;;;29.60;96.90;;;;;;6163004;23;20531;-80
2023/08/23 10:52:16;;;;;;;8.38;7.22;;;29.60;84.60;;;;;;6140064;23;20020;-82
2023/08/23 10:54:42;;;;;;;7.32;6.20;;;29.60;89.40;;;;;;6163899;23;20357;-82
2023/08/23 10:57:08;;;;;;;8.55;5.63;;;29.60;91.40;;;;;;6189846;23;20005;-82
2023/08/23 10:59:33;;;;;;;7.20;6.03;;;29.70;88.50;;;;;;6165175;23;20019;-82
2023/08/23 11:02:00;;;;;;;7.00;6.00;;;29.80;84.70;;;;;;6189488;23;20512;-81
2023/08/23 11:04:26;;;;;;;6.18;4.90;;;30.00;91.80;;;;;;6163122;23;20012;-82
2023/08/23 11:06:51;;;;;;;6.63;5.97;;;30.10;80.10;;;;;;6162673;23;20514;-82
2023/08/23 11:09:18;;;;;;;7.07;5.70;;;30.10;76.00;;;;;;6189280;23;20045;-82
2023/08/23 11:11:43;;;;;;;7.60;5.60;;;30.10;76.20;;;;;;6164084;23;20020;-81
2023/08/23 11:14:09;;;;;;;6.35;4.72;;;30.20;80.80;;;;;;6188211;23;20010;-82
2023/08/23 11:16:35;;;;;;;4.82;3.97;;;30.40;81.80;;;;;;6163955;23;20013;-81
2023/08/23 11:19:03;;;;;;;4.97;3.95;;;30.50;79.00;;;;;;6159513;23;20052;-82
2023/08/23 11:21:31;;;;;;;7.15;5.03;;;30.60;78.80;;;;;;6135397;23;20012;-80
2023/08/23 11:23:57;;;;;;;6.13;4.63;;;30.70;73.20;;;;;;6135843;23;20476;-82
2023/08/23 11:26:22;;;;;;;5.47;4.93;;;30.70;70.00;;;;;;6135565;23;20017;-81
2023/08/23 11:28:50;;;;;;;5.95;5.10;;;30.60;72.50;;;;;;6160179;23;20013;-82
2023/08/23 11:31:16;;;;;;;6.18;5.20;;;30.60;71.30;;;;;;6159862;23;20016;-81
2023/08/23 11:33:41;;;;;;;6.90;5.68;;;30.70;74.20;;;;;;6160474;23;20354;-81
2023/08/23 11:36:09;;;;;;;8.05;5.80;;;30.80;73.40;;;;;;6160315;23;20453;-81
2023/08/23 11:38:35;;;;;;;7.90;6.28;;;30.80;72.90;;;;;;6160779;23;20016;-82
2023/08/23 11:41:00;;;;;;;8.02;6.55;;;30.80;73.40;;;;;;6159843;23;20009;-81
2023/08/23 11:43:27;;;;;;;6.72;5.53;;;31.00;75.20;;;;;;6160247;23;20012;-81
2023/08/23 11:45:53;;;;;;;8.80;6.40;;;31.10;72.40;;;;;;6160363;23;20393;-81
2023/08/23 11:48:23;;;;;;;10.18;6.80;;;31.10;69.40;;;;;;6160321;23;20024;-81
2023/08/23 11:50:50;;;;;;;7.72;6.93;;;31.10;69.70;;;;;;6159539;23;20096;-81
2023/08/23 11:53:16;;;;;;;6.32;5.68;;;31.10;69.40;;;;;;6159723;23;20017;-82
2023/08/23 11:55:42;;;;;;;6.03;5.43;;;31.00;69.30;;;;;;6159495;23;20397;-82
2023/08/23 11:58:09;;;;;;;5.32;4.63;;;30.60;66.70;;;;;;6135936;23;20100;-80
2023/08/23 12:00:35;;;;;;;5.55;4.20;;;30.50;66.70;;;;;;6159959;23;20013;-80
2023/08/23 12:03:01;;;;;;;5.60;4.70;;;30.30;66.50;;;;;;6160213;23;20009;-82
2023/08/23 12:05:27;;;;;;;5.85;4.60;;;30.50;67.80;;;;;;6159677;23;20139;-80
2023/08/23 12:07:53;;;;;;;6.30;4.78;;;30.70;69.20;;;;;;6135783;23;20013;-81
2023/08/23 12:10:21;;;;;;;6.80;5.40;;;30.80;69.30;;;;;;6135763;23;20009;-81
2023/08/23 12:12:47;;;;;;;9.35;5.70;;;30.80;69.80;;;;;;6185122;23;20036;-81
2023/08/23 12:15:13;;;;;;;8.45;5.63;;;31.00;69.30;;;;;;6185756;23;20449;-81
2023/08/23 12:17:38;;;;;;;21.23;5.60;;;31.00;68.70;;;;;;6159190;23;20125;-80
2023/08/23 12:20:07;;;;;;;8.40;4.28;;;31.20;67.90;;;;;;6184611;23;20013;-81
2023/08/23 12:22:33;;;;;;;6.72;3.90;;;31.40;66.20;;;;;;6160294;23;20111;-80
2023/08/23 12:24:58;;;;;;;4.82;3.90;;;31.50;65.00;;;;;;6160004;23;20457;-80
2023/08/23 12:27:24;;;;;;;6.38;4.82;;;31.40;67.10;;;;;;6159743;23;20346;-81
2023/08/23 12:29:50;;;;;;;7.38;5.18;;;31.60;68.10;;;;;;6161484;23;20092;-81
2023/08/23 12:32:15;;;;;;;6.25;4.75;;;31.70;67.80;;;;;;6161380;23;20013;-81
2023/08/23 12:34:41;;;;;;;5.00;3.97;;;31.80;66.40;;;;;;6161092;23;20331;-81
2023/08/23 12:37:06;;;;;;;8.07;3.97;;;32.00;65.80;;;;;;6185805;23;20025;-81
2023/08/23 12:39:32;;;;;;;6.50;3.63;;;31.90;66.70;;;;;;6187086;23;20373;-80
2023/08/23 12:41:57;;;;;;;7.47;4.20;;;31.90;66.20;;;;;;6159420;23;20561;-81
2023/08/23 12:44:24;;;;;;;5.82;3.90;;;31.80;65.10;;;;;;6160928;23;20016;-81
2023/08/23 12:46:49;;;;;;;8.43;3.40;;;31.80;65.70;;;;;;6161325;23;20013;-80
2023/08/23 12:49:15;;;;;;;4.65;3.30;;;31.70;65.40;;;;;;6160660;23;20352;-81
2023/08/23 12:51:42;;;;;;;6.00;3.10;;;31.90;65.90;;;;;;6186316;23;20096;-81
2023/08/23 12:54:08;;;;;;;5.75;3.08;;;32.10;65.20;;;;;;6136553;23;20009;-81
2023/08/23 12:56:35;;;;;;;6.05;2.80;;;32.40;63.00;;;;;;6136465;23;20071;-81
2023/08/23 12:59:02;;;;;;;8.30;3.47;;;32.60;63.90;;;;;;6137507;23;20132;-81
2023/08/23 13:01:28;;;;;;;5.13;4.05;;;32.60;64.30;;;;;;6162278;23;20064;-81
2023/08/23 13:03:54;;;;;;;5.97;4.40;;;32.60;62.10;;;;;;6161115;23;20080;-81
2023/08/23 13:06:20;;;;;;;6.57;4.32;;;32.60;61.10;;;;;;6161207;23;20017;-81
2023/08/23 13:08:46;;;;;;;5.55;4.55;;;32.50;62.30;;;;;;6163092;23;20045;-82
2023/08/23 13:11:12;;;;;;;7.57;4.70;;;32.40;60.50;;;;;;6186792;23;20017;-81
2023/08/23 13:13:40;;;;;;;6.63;4.20;;;32.10;60.20;;;;;;6141549;23;20064;-81